FNCT Airport Information

Runway Information
Runway 02 Length 12139 ft width 145 ft
Elevation ft Threshold ft Heading 0
Runway 20 Length 12139 ft Width 145 ft
Elevation ft Threshold ft Heading 0
Airport Frequencies
Airport Navaids
Airport Weather Information & NOTAM
ADDS - METARS form results

(1837 UTC 27 June 2022)
Data provider http://aviationweather.gov/metar/data/
 
Forecast for: FNCT (CATUMBELA , AO)
Text: TAF FNCT 271100Z 2712/2724 29008KT 9999 FEW015
Forecast period: 1200 to 2200 UTC 27 June 2022
Forecast type: FROM: standard forecast or significant change
Winds: from the WNW (290 degrees) at 9 MPH (8 knots; 4.1 m/s)
Visibility: 6 or more miles (10+ km)
Ceiling: at least 12,000 feet AGL
Clouds: few clouds at 1500 feet AGL
Weather: no significant weather forecast for this period
Text: BECMG 2722/2724 VRB03KT
Forecast period: 2200 UTC 27 June 2022 to 0000 UTC 28 June 2022
Forecast type: BECOMING: Conditions expected to become as follows by 0000 UTC 28 June 2022
Winds: variable direction winds at 3 MPH (3 knots; 1.5 m/s)
Visibility: 6 or more miles (10+ km)
Ceiling: at least 12,000 feet AGL
Clouds: few clouds at 1500 feet AGL
Weather: no significant weather forecast for this period